sensor_id;sensor_type;location;lat;lon;timestamp;temperature;humidity
13389;DHT22;6764;53.250;10.410;2023-07-31T00:00:36;15.70;99.90
13389;DHT22;6764;53.250;10.410;2023-07-31T00:03:02;15.70;99.90
13389;DHT22;6764;53.250;10.410;2023-07-31T00:05:28;15.80;99.90
13389;DHT22;6764;53.250;10.410;2023-07-31T00:07:53;15.80;99.90
13389;DHT22;6764;53.250;10.410;2023-07-31T00:10:20;15.80;99.90
13389;DHT22;6764;53.250;10.410;2023-07-31T00:12:46;15.80;99.90
13389;DHT22;6764;53.250;10.410;2023-07-31T00:15:13;15.80;99.90
13389;DHT22;6764;53.250;10.410;2023-07-31T00:17:39;15.80;99.90
13389;DHT22;6764;53.250;10.410;2023-07-31T00:20:04;15.80;99.90
13389;DHT22;6764;53.250;10.410;2023-07-31T00:22:30;15.80;99.90
13389;DHT22;6764;53.250;10.410;2023-07-31T00:24:56;15.70;99.90
13389;DHT22;6764;53.250;10.410;2023-07-31T00:27:22;15.70;99.90
13389;DHT22;6764;53.250;10.410;2023-07-31T00:29:48;15.70;99.90
13389;DHT22;6764;53.250;10.410;2023-07-31T00:32:13;15.70;99.90
13389;DHT22;6764;53.250;10.410;2023-07-31T00:34:39;15.70;99.90
13389;DHT22;6764;53.250;10.410;2023-07-31T00:37:05;15.80;99.90
13389;DHT22;6764;53.250;10.410;2023-07-31T00:39:30;15.90;99.90
13389;DHT22;6764;53.250;10.410;2023-07-31T00:41:56;15.90;99.90
13389;DHT22;6764;53.250;10.410;2023-07-31T00:44:22;15.90;99.90
13389;DHT22;6764;53.250;10.410;2023-07-31T00:46:48;15.90;99.90
13389;DHT22;6764;53.250;10.410;2023-07-31T00:49:15;16.00;99.90
13389;DHT22;6764;53.250;10.410;2023-07-31T00:51:41;16.00;99.90
13389;DHT22;6764;53.250;10.410;2023-07-31T00:54:06;16.00;99.90
13389;DHT22;6764;53.250;10.410;2023-07-31T00:56:32;16.10;99.90
13389;DHT22;6764;53.250;10.410;2023-07-31T00:58:58;16.10;99.90
13389;DHT22;6764;53.250;10.410;2023-07-31T01:01:24;16.10;99.90
13389;DHT22;6764;53.250;10.410;2023-07-31T01:03:51;16.20;99.90
13389;DHT22;6764;53.250;10.410;2023-07-31T01:11:48;16.40;99.90
13389;DHT22;6764;53.250;10.410;2023-07-31T01:14:15;16.40;99.90
13389;DHT22;6764;53.250;10.410;2023-07-31T01:16:41;16.50;99.90
13389;DHT22;6764;53.250;10.410;2023-07-31T01:19:08;16.50;99.90
13389;DHT22;6764;53.250;10.410;2023-07-31T01:24:22;16.50;99.90
13389;DHT22;6764;53.250;10.410;2023-07-31T01:27:14;16.60;99.90
13389;DHT22;6764;53.250;10.410;2023-07-31T01:29:47;16.60;99.90
13389;DHT22;6764;53.250;10.410;2023-07-31T01:32:14;16.70;99.90
13389;DHT22;6764;53.250;10.410;2023-07-31T01:34:43;16.70;99.90
13389;DHT22;6764;53.250;10.410;2023-07-31T01:37:09;16.60;99.90
13389;DHT22;6764;53.250;10.410;2023-07-31T01:39:35;16.60;99.90
13389;DHT22;6764;53.250;10.410;2023-07-31T01:42:00;16.60;99.90
13389;DHT22;6764;53.250;10.410;2023-07-31T01:44:27;16.60;99.90
13389;DHT22;6764;53.250;10.410;2023-07-31T01:46:52;16.60;99.90
13389;DHT22;6764;53.250;10.410;2023-07-31T01:49:18;16.60;99.90
13389;DHT22;6764;53.250;10.410;2023-07-31T01:51:44;16.60;99.90
13389;DHT22;6764;53.250;10.410;2023-07-31T01:54:09;16.60;99.90
13389;DHT22;6764;53.250;10.410;2023-07-31T01:56:35;16.60;99.90
13389;DHT22;6764;53.250;10.410;2023-07-31T01:59:00;16.60;99.90
13389;DHT22;6764;53.250;10.410;2023-07-31T02:01:26;16.60;99.90
13389;DHT22;6764;53.250;10.410;2023-07-31T02:03:52;16.50;99.90
13389;DHT22;6764;53.250;10.410;2023-07-31T02:06:17;16.50;99.90
13389;DHT22;6764;53.250;10.410;2023-07-31T02:08:43;16.50;99.90
13389;DHT22;6764;53.250;10.410;2023-07-31T02:11:09;16.50;99.90
13389;DHT22;6764;53.250;10.410;2023-07-31T02:13:34;16.60;99.90
13389;DHT22;6764;53.250;10.410;2023-07-31T02:16:00;16.50;99.90
13389;DHT22;6764;53.250;10.410;2023-07-31T02:18:26;16.50;99.90
13389;DHT22;6764;53.250;10.410;2023-07-31T02:20:52;16.50;99.90
13389;DHT22;6764;53.250;10.410;2023-07-31T02:23:18;16.50;99.90
13389;DHT22;6764;53.250;10.410;2023-07-31T02:25:44;16.50;99.90
13389;DHT22;6764;53.250;10.410;2023-07-31T02:28:10;16.40;99.90
13389;DHT22;6764;53.250;10.410;2023-07-31T02:30:36;16.40;99.90
13389;DHT22;6764;53.250;10.410;2023-07-31T02:33:02;16.40;99.90
13389;DHT22;6764;53.250;10.410;2023-07-31T02:35:27;16.40;99.90
13389;DHT22;6764;53.250;10.410;2023-07-31T02:37:53;16.40;99.90
13389;DHT22;6764;53.250;10.410;2023-07-31T02:40:19;16.40;99.90
13389;DHT22;6764;53.250;10.410;2023-07-31T02:42:44;16.40;99.90
13389;DHT22;6764;53.250;10.410;2023-07-31T02:45:10;16.50;99.90
13389;DHT22;6764;53.250;10.410;2023-07-31T02:47:35;16.40;99.90
13389;DHT22;6764;53.250;10.410;2023-07-31T02:50:05;16.40;99.90
13389;DHT22;6764;53.250;10.410;2023-07-31T02:52:31;16.40;99.90
13389;DHT22;6764;53.250;10.410;2023-07-31T02:54:58;16.40;99.90
13389;DHT22;6764;53.250;10.410;2023-07-31T02:57:23;16.40;99.90
13389;DHT22;6764;53.250;10.410;2023-07-31T02:59:49;16.40;99.90
13389;DHT22;6764;53.250;10.410;2023-07-31T03:02:14;16.40;99.90
13389;DHT22;6764;53.250;10.410;2023-07-31T03:04:40;16.40;99.90
13389;DHT22;6764;53.250;10.410;2023-07-31T03:07:06;16.40;99.90
13389;DHT22;6764;53.250;10.410;2023-07-31T03:09:31;16.50;99.90
13389;DHT22;6764;53.250;10.410;2023-07-31T03:11:57;16.50;99.90
13389;DHT22;6764;53.250;10.410;2023-07-31T03:14:23;16.50;99.90
13389;DHT22;6764;53.250;10.410;2023-07-31T03:16:49;16.60;99.90
13389;DHT22;6764;53.250;10.410;2023-07-31T03:19:14;16.60;99.90
13389;DHT22;6764;53.250;10.410;2023-07-31T03:21:40;16.60;99.90
13389;DHT22;6764;53.250;10.410;2023-07-31T03:24:06;16.60;99.90
13389;DHT22;6764;53.250;10.410;2023-07-31T03:26:32;16.70;99.90
13389;DHT22;6764;53.250;10.410;2023-07-31T03:28:58;16.70;99.90
13389;DHT22;6764;53.250;10.410;2023-07-31T03:31:23;16.70;99.90
13389;DHT22;6764;53.250;10.410;2023-07-31T03:33:49;16.70;99.90
13389;DHT22;6764;53.250;10.410;2023-07-31T03:36:15;16.70;99.90
13389;DHT22;6764;53.250;10.410;2023-07-31T03:38:40;16.60;99.90
13389;DHT22;6764;53.250;10.410;2023-07-31T03:41:06;16.60;99.90
13389;DHT22;6764;53.250;10.410;2023-07-31T03:43:32;16.50;99.90
13389;DHT22;6764;53.250;10.410;2023-07-31T03:46:00;16.60;99.90
13389;DHT22;6764;53.250;10.410;2023-07-31T03:48:25;16.50;99.90
13389;DHT22;6764;53.250;10.410;2023-07-31T03:50:51;16.50;99.90
13389;DHT22;6764;53.250;10.410;2023-07-31T03:53:17;16.50;99.90
13389;DHT22;6764;53.250;10.410;2023-07-31T03:55:42;16.50;99.90
13389;DHT22;6764;53.250;10.410;2023-07-31T03:58:08;16.60;99.90
13389;DHT22;6764;53.250;10.410;2023-07-31T04:00:34;16.60;99.90
13389;DHT22;6764;53.250;10.410;2023-07-31T04:02:59;16.60;99.90
13389;DHT22;6764;53.250;10.410;2023-07-31T04:05:25;16.60;99.90
13389;DHT22;6764;53.250;10.410;2023-07-31T04:07:51;16.60;99.90
13389;DHT22;6764;53.250;10.410;2023-07-31T04:10:17;16.60;99.90
13389;DHT22;6764;53.250;10.410;2023-07-31T04:12:42;16.60;99.90
13389;DHT22;6764;53.250;10.410;2023-07-31T04:15:08;16.70;99.90
13389;DHT22;6764;53.250;10.410;2023-07-31T04:17:34;16.70;99.90
13389;DHT22;6764;53.250;10.410;2023-07-31T04:19:59;16.70;99.90
13389;DHT22;6764;53.250;10.410;2023-07-31T04:22:25;16.70;99.90
13389;DHT22;6764;53.250;10.410;2023-07-31T04:24:51;16.70;99.90
13389;DHT22;6764;53.250;10.410;2023-07-31T04:27:16;16.70;99.90
13389;DHT22;6764;53.250;10.410;2023-07-31T04:29:42;16.70;99.90
13389;DHT22;6764;53.250;10.410;2023-07-31T04:32:09;16.70;99.90
13389;DHT22;6764;53.250;10.410;2023-07-31T04:34:35;16.70;99.90
13389;DHT22;6764;53.250;10.410;2023-07-31T04:37:00;16.80;99.90
13389;DHT22;6764;53.250;10.410;2023-07-31T04:39:26;16.80;99.90
13389;DHT22;6764;53.250;10.410;2023-07-31T04:41:52;16.90;99.90
13389;DHT22;6764;53.250;10.410;2023-07-31T04:44:17;16.90;99.90
13389;DHT22;6764;53.250;10.410;2023-07-31T04:46:43;17.00;99.90
13389;DHT22;6764;53.250;10.410;2023-07-31T04:49:08;17.00;99.90
13389;DHT22;6764;53.250;10.410;2023-07-31T04:51:34;17.00;99.90
13389;DHT22;6764;53.250;10.410;2023-07-31T04:53:59;16.90;99.90
13389;DHT22;6764;53.250;10.410;2023-07-31T04:56:25;16.90;99.90
13389;DHT22;6764;53.250;10.410;2023-07-31T04:58:51;16.90;99.90
13389;DHT22;6764;53.250;10.410;2023-07-31T05:01:16;16.90;99.90
13389;DHT22;6764;53.250;10.410;2023-07-31T05:03:42;16.90;99.90
13389;DHT22;6764;53.250;10.410;2023-07-31T05:06:07;16.90;99.90
13389;DHT22;6764;53.250;10.410;2023-07-31T05:08:33;17.00;99.90
13389;DHT22;6764;53.250;10.410;2023-07-31T05:10:59;17.00;99.90
13389;DHT22;6764;53.250;10.410;2023-07-31T05:13:24;16.90;99.90
13389;DHT22;6764;53.250;10.410;2023-07-31T05:15:50;17.00;99.90
13389;DHT22;6764;53.250;10.410;2023-07-31T05:18:15;16.90;99.90
13389;DHT22;6764;53.250;10.410;2023-07-31T05:20:41;17.00;99.90
13389;DHT22;6764;53.250;10.410;2023-07-31T05:23:07;17.00;99.90
13389;DHT22;6764;53.250;10.410;2023-07-31T05:25:32;17.10;99.90
13389;DHT22;6764;53.250;10.410;2023-07-31T05:27:58;17.10;99.90
13389;DHT22;6764;53.250;10.410;2023-07-31T05:30:23;17.20;99.90
13389;DHT22;6764;53.250;10.410;2023-07-31T05:32:49;17.20;99.90
13389;DHT22;6764;53.250;10.410;2023-07-31T05:35:15;17.30;99.90
13389;DHT22;6764;53.250;10.410;2023-07-31T05:37:40;17.40;99.90
13389;DHT22;6764;53.250;10.410;2023-07-31T05:40:06;17.40;99.90
13389;DHT22;6764;53.250;10.410;2023-07-31T05:42:32;17.50;99.90
13389;DHT22;6764;53.250;10.410;2023-07-31T05:44:58;17.60;99.90
13389;DHT22;6764;53.250;10.410;2023-07-31T05:47:23;17.70;99.90
13389;DHT22;6764;53.250;10.410;2023-07-31T05:49:49;17.70;99.90
13389;DHT22;6764;53.250;10.410;2023-07-31T05:52:18;17.80;99.90
13389;DHT22;6764;53.250;10.410;2023-07-31T05:54:43;17.70;99.90
13389;DHT22;6764;53.250;10.410;2023-07-31T05:57:09;17.70;99.90
13389;DHT22;6764;53.250;10.410;2023-07-31T05:59:35;17.70;99.90
13389;DHT22;6764;53.250;10.410;2023-07-31T06:02:00;17.70;99.90
13389;DHT22;6764;53.250;10.410;2023-07-31T06:04:26;17.80;99.90
13389;DHT22;6764;53.250;10.410;2023-07-31T06:06:52;17.90;99.90
13389;DHT22;6764;53.250;10.410;2023-07-31T06:09:17;17.90;99.90
13389;DHT22;6764;53.250;10.410;2023-07-31T06:11:43;17.80;99.90
13389;DHT22;6764;53.250;10.410;2023-07-31T06:14:09;17.90;99.90
13389;DHT22;6764;53.250;10.410;2023-07-31T06:16:34;18.00;99.90
13389;DHT22;6764;53.250;10.410;2023-07-31T06:19:00;18.10;99.90
13389;DHT22;6764;53.250;10.410;2023-07-31T06:21:26;18.20;99.90
13389;DHT22;6764;53.250;10.410;2023-07-31T06:23:52;18.30;99.90
13389;DHT22;6764;53.250;10.410;2023-07-31T06:26:17;18.30;99.90
13389;DHT22;6764;53.250;10.410;2023-07-31T06:28:43;18.30;99.90
13389;DHT22;6764;53.250;10.410;2023-07-31T06:31:09;18.40;99.90
13389;DHT22;6764;53.250;10.410;2023-07-31T06:33:35;18.30;99.90
13389;DHT22;6764;53.250;10.410;2023-07-31T06:36:00;18.40;99.90
13389;DHT22;6764;53.250;10.410;2023-07-31T06:38:26;18.30;99.90
13389;DHT22;6764;53.250;10.410;2023-07-31T06:40:53;18.30;99.90
13389;DHT22;6764;53.250;10.410;2023-07-31T06:43:18;18.30;99.90
13389;DHT22;6764;53.250;10.410;2023-07-31T06:45:44;18.40;99.90
13389;DHT22;6764;53.250;10.410;2023-07-31T06:48:11;18.30;99.90
13389;DHT22;6764;53.250;10.410;2023-07-31T06:50:36;18.40;99.90
13389;DHT22;6764;53.250;10.410;2023-07-31T06:53:02;18.40;99.90
13389;DHT22;6764;53.250;10.410;2023-07-31T06:55:28;18.60;99.90
13389;DHT22;6764;53.250;10.410;2023-07-31T06:57:54;18.60;99.90
13389;DHT22;6764;53.250;10.410;2023-07-31T07:00:22;18.80;99.90
13389;DHT22;6764;53.250;10.410;2023-07-31T07:02:48;18.80;99.90
13389;DHT22;6764;53.250;10.410;2023-07-31T07:05:14;18.80;99.90
13389;DHT22;6764;53.250;10.410;2023-07-31T07:07:40;18.90;99.90
13389;DHT22;6764;53.250;10.410;2023-07-31T07:10:06;19.20;99.90
13389;DHT22;6764;53.250;10.410;2023-07-31T07:12:33;19.40;99.90
13389;DHT22;6764;53.250;10.410;2023-07-31T07:14:59;19.30;99.90
13389;DHT22;6764;53.250;10.410;2023-07-31T07:17:26;19.00;99.90
13389;DHT22;6764;53.250;10.410;2023-07-31T07:19:52;19.10;99.90
13389;DHT22;6764;53.250;10.410;2023-07-31T07:22:18;19.20;99.90
13389;DHT22;6764;53.250;10.410;2023-07-31T07:24:43;19.20;99.90
13389;DHT22;6764;53.250;10.410;2023-07-31T07:27:09;19.00;99.90
13389;DHT22;6764;53.250;10.410;2023-07-31T07:29:35;19.00;99.90
13389;DHT22;6764;53.250;10.410;2023-07-31T07:32:00;18.90;99.90
13389;DHT22;6764;53.250;10.410;2023-07-31T07:34:27;18.80;99.90
13389;DHT22;6764;53.250;10.410;2023-07-31T07:36:53;18.80;99.90
13389;DHT22;6764;53.250;10.410;2023-07-31T07:39:19;18.80;99.90
13389;DHT22;6764;53.250;10.410;2023-07-31T07:41:46;18.70;99.90
13389;DHT22;6764;53.250;10.410;2023-07-31T07:44:12;18.70;99.90
13389;DHT22;6764;53.250;10.410;2023-07-31T07:46:38;18.80;99.90
13389;DHT22;6764;53.250;10.410;2023-07-31T07:49:03;18.80;99.90
13389;DHT22;6764;53.250;10.410;2023-07-31T07:51:29;18.70;99.90
13389;DHT22;6764;53.250;10.410;2023-07-31T07:53:57;18.70;99.90
13389;DHT22;6764;53.250;10.410;2023-07-31T07:56:23;18.80;99.90
13389;DHT22;6764;53.250;10.410;2023-07-31T07:58:50;18.90;99.90
13389;DHT22;6764;53.250;10.410;2023-07-31T08:01:15;18.90;99.90
13389;DHT22;6764;53.250;10.410;2023-07-31T08:03:41;19.00;99.90
13389;DHT22;6764;53.250;10.410;2023-07-31T08:06:07;19.10;99.90
13389;DHT22;6764;53.250;10.410;2023-07-31T08:08:37;19.00;99.90
13389;DHT22;6764;53.250;10.410;2023-07-31T08:11:03;19.20;99.90
13389;DHT22;6764;53.250;10.410;2023-07-31T08:13:29;19.30;99.90
13389;DHT22;6764;53.250;10.410;2023-07-31T08:15:54;19.40;99.90
13389;DHT22;6764;53.250;10.410;2023-07-31T08:18:20;19.30;99.90
13389;DHT22;6764;53.250;10.410;2023-07-31T08:20:46;19.30;99.90
13389;DHT22;6764;53.250;10.410;2023-07-31T08:23:11;19.20;99.90
13389;DHT22;6764;53.250;10.410;2023-07-31T08:25:37;19.30;99.90
13389;DHT22;6764;53.250;10.410;2023-07-31T08:28:04;19.30;99.90
13389;DHT22;6764;53.250;10.410;2023-07-31T08:30:30;19.20;99.90
13389;DHT22;6764;53.250;10.410;2023-07-31T08:32:56;19.30;99.90
13389;DHT22;6764;53.250;10.410;2023-07-31T08:35:22;19.30;99.90
13389;DHT22;6764;53.250;10.410;2023-07-31T08:37:48;19.20;99.90
13389;DHT22;6764;53.250;10.410;2023-07-31T08:40:14;19.10;99.90
13389;DHT22;6764;53.250;10.410;2023-07-31T08:42:49;19.00;99.90
13389;DHT22;6764;53.250;10.410;2023-07-31T08:45:19;18.90;99.90
13389;DHT22;6764;53.250;10.410;2023-07-31T08:47:50;18.80;99.90
13389;DHT22;6764;53.250;10.410;2023-07-31T08:50:19;18.80;99.90
13389;DHT22;6764;53.250;10.410;2023-07-31T08:52:50;18.70;99.90
13389;DHT22;6764;53.250;10.410;2023-07-31T08:55:16;18.60;99.90
13389;DHT22;6764;53.250;10.410;2023-07-31T08:57:42;18.60;99.90
13389;DHT22;6764;53.250;10.410;2023-07-31T09:00:09;18.70;99.90
13389;DHT22;6764;53.250;10.410;2023-07-31T09:02:59;18.60;99.90
13389;DHT22;6764;53.250;10.410;2023-07-31T09:05:30;18.70;99.90
13389;DHT22;6764;53.250;10.410;2023-07-31T09:07:56;18.60;99.90
13389;DHT22;6764;53.250;10.410;2023-07-31T09:10:23;18.60;99.90
13389;DHT22;6764;53.250;10.410;2023-07-31T09:12:52;18.70;99.90
13389;DHT22;6764;53.250;10.410;2023-07-31T09:15:18;18.80;99.90
13389;DHT22;6764;53.250;10.410;2023-07-31T09:17:44;18.80;99.90
13389;DHT22;6764;53.250;10.410;2023-07-31T09:22:39;19.00;99.90
13389;DHT22;6764;53.250;10.410;2023-07-31T09:28:01;19.20;99.90
13389;DHT22;6764;53.250;10.410;2023-07-31T09:30:27;19.30;99.90
13389;DHT22;6764;53.250;10.410;2023-07-31T09:33:06;19.40;99.90
13389;DHT22;6764;53.250;10.410;2023-07-31T09:35:34;19.30;99.90
13389;DHT22;6764;53.250;10.410;2023-07-31T09:38:10;19.10;99.90
13389;DHT22;6764;53.250;10.410;2023-07-31T09:40:42;19.10;99.90
13389;DHT22;6764;53.250;10.410;2023-07-31T09:43:10;19.10;99.90
13389;DHT22;6764;53.250;10.410;2023-07-31T09:45:37;19.20;99.90
13389;DHT22;6764;53.250;10.410;2023-07-31T09:48:10;19.20;99.90
13389;DHT22;6764;53.250;10.410;2023-07-31T09:50:38;19.30;99.90
13389;DHT22;6764;53.250;10.410;2023-07-31T09:53:06;19.30;99.90
13389;DHT22;6764;53.250;10.410;2023-07-31T09:55:33;19.30;99.90
13389;DHT22;6764;53.250;10.410;2023-07-31T09:57:59;19.20;99.90
13389;DHT22;6764;53.250;10.410;2023-07-31T10:00:28;19.20;99.90
13389;DHT22;6764;53.250;10.410;2023-07-31T10:03:04;19.20;99.90
13389;DHT22;6764;53.250;10.410;2023-07-31T10:05:50;19.20;99.90
13389;DHT22;6764;53.250;10.410;2023-07-31T10:08:18;19.30;99.90
13389;DHT22;6764;53.250;10.410;2023-07-31T10:10:45;19.20;99.90
13389;DHT22;6764;53.250;10.410;2023-07-31T10:13:12;19.30;99.90
13389;DHT22;6764;53.250;10.410;2023-07-31T10:15:39;19.30;99.90
13389;DHT22;6764;53.250;10.410;2023-07-31T10:18:06;19.40;99.90
13389;DHT22;6764;53.250;10.410;2023-07-31T10:20:32;19.70;99.90
13389;DHT22;6764;53.250;10.410;2023-07-31T10:22:57;19.80;99.90
13389;DHT22;6764;53.250;10.410;2023-07-31T10:25:26;19.70;99.90
13389;DHT22;6764;53.250;10.410;2023-07-31T10:27:53;19.80;99.90
13389;DHT22;6764;53.250;10.410;2023-07-31T10:30:21;19.80;99.90
13389;DHT22;6764;53.250;10.410;2023-07-31T10:32:48;19.70;99.90
13389;DHT22;6764;53.250;10.410;2023-07-31T10:35:16;19.70;99.90
13389;DHT22;6764;53.250;10.410;2023-07-31T10:37:43;19.80;99.90
13389;DHT22;6764;53.250;10.410;2023-07-31T10:40:13;20.10;99.90
13389;DHT22;6764;53.250;10.410;2023-07-31T10:42:51;20.10;99.90
13389;DHT22;6764;53.250;10.410;2023-07-31T10:45:27;20.10;99.90
13389;DHT22;6764;53.250;10.410;2023-07-31T10:47:59;20.10;99.90
13389;DHT22;6764;53.250;10.410;2023-07-31T10:50:30;20.00;99.90
13389;DHT22;6764;53.250;10.410;2023-07-31T10:52:58;20.00;99.90
13389;DHT22;6764;53.250;10.410;2023-07-31T10:55:41;19.80;99.90
13389;DHT22;6764;53.250;10.410;2023-07-31T10:58:10;19.70;99.90
13389;DHT22;6764;53.250;10.410;2023-07-31T11:00:43;19.60;99.90
13389;DHT22;6764;53.250;10.410;2023-07-31T11:03:14;19.60;99.90
13389;DHT22;6764;53.250;10.410;2023-07-31T11:10:39;19.70;99.90
13389;DHT22;6764;53.250;10.410;2023-07-31T11:13:05;19.80;99.90
13389;DHT22;6764;53.250;10.410;2023-07-31T11:15:31;19.90;99.90
13389;DHT22;6764;53.250;10.410;2023-07-31T11:17:56;19.90;99.90
13389;DHT22;6764;53.250;10.410;2023-07-31T11:20:25;19.90;99.90
13389;DHT22;6764;53.250;10.410;2023-07-31T11:22:50;20.00;99.90
13389;DHT22;6764;53.250;10.410;2023-07-31T11:25:16;19.90;99.90
13389;DHT22;6764;53.250;10.410;2023-07-31T11:27:43;20.00;99.90
13389;DHT22;6764;53.250;10.410;2023-07-31T11:30:09;20.00;99.90
13389;DHT22;6764;53.250;10.410;2023-07-31T11:32:38;20.00;99.90
13389;DHT22;6764;53.250;10.410;2023-07-31T11:35:04;20.00;99.90
13389;DHT22;6764;53.250;10.410;2023-07-31T11:37:44;20.20;99.90
13389;DHT22;6764;53.250;10.410;2023-07-31T11:40:10;20.40;99.90
13389;DHT22;6764;53.250;10.410;2023-07-31T11:42:36;20.70;99.90
13389;DHT22;6764;53.250;10.410;2023-07-31T11:45:05;20.50;99.90
13389;DHT22;6764;53.250;10.410;2023-07-31T11:47:36;20.60;99.90
13389;DHT22;6764;53.250;10.410;2023-07-31T11:50:07;20.40;99.90
13389;DHT22;6764;53.250;10.410;2023-07-31T11:52:41;20.30;99.90
13389;DHT22;6764;53.250;10.410;2023-07-31T11:55:09;20.40;99.90
13389;DHT22;6764;53.250;10.410;2023-07-31T11:57:39;20.50;99.90
13389;DHT22;6764;53.250;10.410;2023-07-31T12:00:07;20.60;99.90
13389;DHT22;6764;53.250;10.410;2023-07-31T12:02:34;20.50;99.90
13389;DHT22;6764;53.250;10.410;2023-07-31T12:05:01;20.40;99.90
13389;DHT22;6764;53.250;10.410;2023-07-31T12:07:27;20.40;99.90
13389;DHT22;6764;53.250;10.410;2023-07-31T12:09:54;20.50;99.90
13389;DHT22;6764;53.250;10.410;2023-07-31T12:12:24;20.40;99.90
13389;DHT22;6764;53.250;10.410;2023-07-31T12:14:50;20.50;99.90
13389;DHT22;6764;53.250;10.410;2023-07-31T12:17:19;20.40;99.90
13389;DHT22;6764;53.250;10.410;2023-07-31T12:19:45;20.50;99.90
13389;DHT22;6764;53.250;10.410;2023-07-31T12:22:15;20.50;99.90
13389;DHT22;6764;53.250;10.410;2023-07-31T12:24:43;20.40;99.90
13389;DHT22;6764;53.250;10.410;2023-07-31T12:27:13;20.20;99.90
13389;DHT22;6764;53.250;10.410;2023-07-31T12:29:39;20.20;99.90
13389;DHT22;6764;53.250;10.410;2023-07-31T12:32:22;20.30;99.90
13389;DHT22;6764;53.250;10.410;2023-07-31T12:34:48;20.40;99.90
13389;DHT22;6764;53.250;10.410;2023-07-31T12:37:13;20.50;99.90
13389;DHT22;6764;53.250;10.410;2023-07-31T12:39:39;20.70;99.90
13389;DHT22;6764;53.250;10.410;2023-07-31T12:42:05;20.60;99.90
13389;DHT22;6764;53.250;10.410;2023-07-31T12:44:31;20.60;99.90
13389;DHT22;6764;53.250;10.410;2023-07-31T12:46:57;20.60;99.90
13389;DHT22;6764;53.250;10.410;2023-07-31T12:49:22;20.60;99.90
13389;DHT22;6764;53.250;10.410;2023-07-31T12:51:48;20.50;99.90
13389;DHT22;6764;53.250;10.410;2023-07-31T12:54:14;20.50;99.90
13389;DHT22;6764;53.250;10.410;2023-07-31T12:56:40;20.70;99.90
13389;DHT22;6764;53.250;10.410;2023-07-31T12:59:05;20.80;99.90
13389;DHT22;6764;53.250;10.410;2023-07-31T13:01:31;20.60;99.90
13389;DHT22;6764;53.250;10.410;2023-07-31T13:03:57;20.60;99.90
13389;DHT22;6764;53.250;10.410;2023-07-31T13:06:24;20.50;99.90
13389;DHT22;6764;53.250;10.410;2023-07-31T13:08:51;20.40;99.90
13389;DHT22;6764;53.250;10.410;2023-07-31T13:11:16;20.40;99.90
13389;DHT22;6764;53.250;10.410;2023-07-31T13:13:42;20.40;99.90
13389;DHT22;6764;53.250;10.410;2023-07-31T13:16:07;20.30;99.90
13389;DHT22;6764;53.250;10.410;2023-07-31T13:18:33;20.20;99.90
13389;DHT22;6764;53.250;10.410;2023-07-31T13:20:59;20.20;99.90
13389;DHT22;6764;53.250;10.410;2023-07-31T13:23:24;20.10;99.90
13389;DHT22;6764;53.250;10.410;2023-07-31T13:25:50;20.10;99.90
13389;DHT22;6764;53.250;10.410;2023-07-31T13:28:15;20.10;99.90
13389;DHT22;6764;53.250;10.410;2023-07-31T13:30:41;20.00;99.90
13389;DHT22;6764;53.250;10.410;2023-07-31T13:33:06;20.10;99.90
13389;DHT22;6764;53.250;10.410;2023-07-31T13:35:32;20.20;99.90
13389;DHT22;6764;53.250;10.410;2023-07-31T13:37:58;20.00;99.90
13389;DHT22;6764;53.250;10.410;2023-07-31T13:40:23;20.10;99.90
13389;DHT22;6764;53.250;10.410;2023-07-31T13:42:49;20.20;99.90
13389;DHT22;6764;53.250;10.410;2023-07-31T13:45:14;20.30;99.90
13389;DHT22;6764;53.250;10.410;2023-07-31T13:47:40;20.40;99.90
13389;DHT22;6764;53.250;10.410;2023-07-31T13:50:06;20.30;99.90
13389;DHT22;6764;53.250;10.410;2023-07-31T13:52:32;20.40;99.90
13389;DHT22;6764;53.250;10.410;2023-07-31T13:55:00;20.40;99.90
13389;DHT22;6764;53.250;10.410;2023-07-31T13:57:26;20.40;99.90
13389;DHT22;6764;53.250;10.410;2023-07-31T13:59:52;20.30;99.90
13389;DHT22;6764;53.250;10.410;2023-07-31T14:02:17;20.20;99.90
13389;DHT22;6764;53.250;10.410;2023-07-31T14:04:43;20.30;99.90
13389;DHT22;6764;53.250;10.410;2023-07-31T14:07:08;20.30;99.90
13389;DHT22;6764;53.250;10.410;2023-07-31T14:09:34;20.30;99.90
13389;DHT22;6764;53.250;10.410;2023-07-31T14:12:00;20.30;99.90
13389;DHT22;6764;53.250;10.410;2023-07-31T14:14:25;20.30;99.90
13389;DHT22;6764;53.250;10.410;2023-07-31T14:16:51;20.40;99.90
13389;DHT22;6764;53.250;10.410;2023-07-31T14:19:16;20.40;99.90
13389;DHT22;6764;53.250;10.410;2023-07-31T14:21:42;20.30;99.90
13389;DHT22;6764;53.250;10.410;2023-07-31T14:24:07;20.20;99.90
13389;DHT22;6764;53.250;10.410;2023-07-31T14:26:33;20.00;99.90
13389;DHT22;6764;53.250;10.410;2023-07-31T14:28:59;19.90;99.90
13389;DHT22;6764;53.250;10.410;2023-07-31T14:31:24;19.90;99.90
13389;DHT22;6764;53.250;10.410;2023-07-31T14:33:50;19.80;99.90
13389;DHT22;6764;53.250;10.410;2023-07-31T14:36:15;19.80;99.90
13389;DHT22;6764;53.250;10.410;2023-07-31T14:38:41;19.80;99.90
13389;DHT22;6764;53.250;10.410;2023-07-31T14:41:07;19.80;99.90
13389;DHT22;6764;53.250;10.410;2023-07-31T14:43:32;19.90;99.90
13389;DHT22;6764;53.250;10.410;2023-07-31T14:45:58;20.00;99.90
13389;DHT22;6764;53.250;10.410;2023-07-31T14:48:26;20.00;99.90
13389;DHT22;6764;53.250;10.410;2023-07-31T14:50:52;20.00;99.90
13389;DHT22;6764;53.250;10.410;2023-07-31T14:53:18;20.00;99.90
13389;DHT22;6764;53.250;10.410;2023-07-31T14:55:43;19.80;99.90
13389;DHT22;6764;53.250;10.410;2023-07-31T14:58:09;19.80;99.90
13389;DHT22;6764;53.250;10.410;2023-07-31T15:00:36;19.80;99.90
13389;DHT22;6764;53.250;10.410;2023-07-31T15:03:03;19.80;99.90
13389;DHT22;6764;53.250;10.410;2023-07-31T15:05:28;19.90;99.90
13389;DHT22;6764;53.250;10.410;2023-07-31T15:07:54;19.80;99.90
13389;DHT22;6764;53.250;10.410;2023-07-31T15:10:20;19.70;99.90
13389;DHT22;6764;53.250;10.410;2023-07-31T15:12:45;19.60;99.90
13389;DHT22;6764;53.250;10.410;2023-07-31T15:15:11;19.70;99.90
13389;DHT22;6764;53.250;10.410;2023-07-31T15:17:37;19.70;99.90
13389;DHT22;6764;53.250;10.410;2023-07-31T15:20:03;19.60;99.90
13389;DHT22;6764;53.250;10.410;2023-07-31T15:22:29;19.80;99.90
13389;DHT22;6764;53.250;10.410;2023-07-31T15:24:55;19.70;99.90
13389;DHT22;6764;53.250;10.410;2023-07-31T15:27:21;19.60;99.90
13389;DHT22;6764;53.250;10.410;2023-07-31T15:29:49;19.60;99.90
13389;DHT22;6764;53.250;10.410;2023-07-31T15:32:15;19.60;99.90
13389;DHT22;6764;53.250;10.410;2023-07-31T15:34:41;19.50;99.90
13389;DHT22;6764;53.250;10.410;2023-07-31T15:37:06;19.50;99.90
13389;DHT22;6764;53.250;10.410;2023-07-31T15:39:32;19.40;99.90
13389;DHT22;6764;53.250;10.410;2023-07-31T15:41:58;19.40;99.90
13389;DHT22;6764;53.250;10.410;2023-07-31T15:44:23;19.50;99.90